Time;durP1;ratioP1;P1;durP2;ratioP2;P2;SDS_P1;SDS_P2;PMS_P1;PMS_P2;Temp;Humidity;BMP_temperature;BMP_pressure;BME280_temperature;BME280_humidity;BME280_pressure;Samples;Min_cycle;Max_cycle;Signal;HPM_P1;HPM_P2
2021/11/19 00:02:15;;;;;;;73.23;54.43;;;;;;;;;;5054876;28;20409;-82
2021/11/19 00:04:42;;;;;;;66.90;48.80;;;;;;;;;;5054799;28;20451;-82
2021/11/19 00:07:10;;;;;;;76.03;54.20;;;;;;;;;;5054947;28;20442;-82
2021/11/19 00:09:39;;;;;;;71.77;55.40;;;;;;;;;;5054850;28;20494;-82
2021/11/19 00:12:06;;;;;;;67.83;51.10;;;;;;;;;;5054829;28;20441;-82
2021/11/19 00:14:35;;;;;;;82.53;57.20;;;;;;;;;;5036981;28;20835;-82
2021/11/19 00:17:05;;;;;;;80.13;53.90;;;;;;;;;;5054602;28;20912;-82
2021/11/19 00:19:33;;;;;;;79.27;56.40;;;;;;;;;;5054766;28;20481;-82
2021/11/19 00:22:00;;;;;;;79.93;54.43;;;;;;;;;;5054484;28;20454;-81
2021/11/19 00:24:28;;;;;;;69.20;52.67;;;;;;;;;;5054770;28;20485;-82
2021/11/19 00:26:56;;;;;;;88.50;56.73;;;;;;;;;;5054609;28;20492;-82
2021/11/19 00:29:23;;;;;;;95.03;59.87;;;;;;;;;;5054528;28;20413;-82
2021/11/19 00:31:52;;;;;;;69.10;51.57;;;;;;;;;;5054732;28;20438;-82
2021/11/19 00:34:20;;;;;;;100.50;60.23;;;;;;;;;;5054519;28;20420;-82
2021/11/19 00:36:47;;;;;;;76.60;53.67;;;;;;;;;;5054537;28;20410;-82
2021/11/19 00:39:16;;;;;;;88.87;51.40;;;;;;;;;;5054260;28;20900;-83
2021/11/19 00:41:44;;;;;;;91.90;55.73;;;;;;;;;;5036463;28;20570;-83
2021/11/19 00:44:12;;;;;;;98.27;62.30;;;;;;;;;;5054348;28;20548;-81
2021/11/19 00:46:40;;;;;;;83.13;59.33;;;;;;;;;;5036213;28;20429;-82
2021/11/19 00:49:10;;;;;;;105.00;63.00;;;;;;;;;;5054048;28;20478;-82
2021/11/19 00:51:38;;;;;;;93.83;59.60;;;;;;;;;;5054087;28;20471;-82
2021/11/19 00:54:07;;;;;;;99.20;64.13;;;;;;;;;;5054143;28;20417;-83
2021/11/19 00:56:36;;;;;;;81.77;59.33;;;;;;;;;;5053991;28;20453;-82
2021/11/19 00:59:04;;;;;;;101.37;63.77;;;;;;;;;;5053858;28;20417;-82
2021/11/19 01:01:33;;;;;;;93.60;62.47;;;;;;;;;;5054173;28;20916;-82
2021/11/19 01:04:01;;;;;;;87.53;58.53;;;;;;;;;;5053942;28;20504;-82
2021/11/19 01:06:31;;;;;;;85.33;58.83;;;;;;;;;;5053844;28;20459;-82
2021/11/19 01:08:59;;;;;;;102.13;62.90;;;;;;;;;;5053780;28;20510;-82
2021/11/19 01:11:27;;;;;;;80.93;56.83;;;;;;;;;;5054021;28;20405;-82
2021/11/19 01:13:56;;;;;;;79.63;54.77;;;;;;;;;;5053831;28;20421;-82
2021/11/19 01:16:26;;;;;;;84.10;58.03;;;;;;;;;;5053577;28;20487;-83
2021/11/19 01:18:55;;;;;;;88.57;56.43;;;;;;;;;;5053914;28;20438;-82
2021/11/19 01:21:24;;;;;;;85.63;54.47;;;;;;;;;;5035749;28;20450;-82
2021/11/19 01:23:53;;;;;;;89.27;58.17;;;;;;;;;;5053587;28;20489;-82
2021/11/19 01:26:22;;;;;;;80.73;58.60;;;;;;;;;;5053722;28;20417;-81
2021/11/19 01:28:51;;;;;;;99.57;60.77;;;;;;;;;;5053309;28;20419;-83
2021/11/19 01:31:20;;;;;;;82.67;54.93;;;;;;;;;;5053312;28;20492;-82
2021/11/19 01:33:48;;;;;;;82.93;56.37;;;;;;;;;;5052371;28;20417;-82
2021/11/19 01:36:16;;;;;;;86.00;59.37;;;;;;;;;;5053494;28;20471;-82
2021/11/19 01:38:44;;;;;;;75.70;52.10;;;;;;;;;;5053446;28;20442;-83
2021/11/19 01:41:15;;;;;;;66.50;47.40;;;;;;;;;;5053141;28;20510;-82
2021/11/19 01:43:43;;;;;;;93.07;59.47;;;;;;;;;;5053035;28;20463;-82
2021/11/19 01:46:13;;;;;;;90.17;59.83;;;;;;;;;;5053168;28;20417;-82
2021/11/19 01:48:42;;;;;;;83.10;58.97;;;;;;;;;;5053373;28;20530;-82
2021/11/19 01:51:14;;;;;;;94.80;60.67;;;;;;;;;;5053078;28;20445;-82
2021/11/19 01:53:43;;;;;;;84.03;55.23;;;;;;;;;;5053188;28;20410;-82
2021/11/19 01:56:13;;;;;;;64.90;50.77;;;;;;;;;;5053082;28;20921;-81
2021/11/19 01:58:44;;;;;;;93.67;57.03;;;;;;;;;;5053194;28;20421;-83
2021/11/19 02:01:13;;;;;;;81.10;55.03;;;;;;;;;;5052860;28;20441;-82
2021/11/19 02:03:41;;;;;;;86.40;55.37;;;;;;;;;;5052635;28;20486;-82
2021/11/19 02:06:12;;;;;;;76.70;48.57;;;;;;;;;;5052691;28;20443;-82
2021/11/19 02:08:41;;;;;;;79.83;53.50;;;;;;;;;;5052503;28;20421;-82
2021/11/19 02:11:18;;;;;;;90.33;57.00;;;;;;;;;;5053058;28;20447;-82
2021/11/19 02:14:03;;;;;;;91.13;61.17;;;;;;;;;;5052879;28;20412;-82
2021/11/19 02:16:34;;;;;;;87.80;59.33;;;;;;;;;;5052776;28;20428;-82
2021/11/19 02:19:04;;;;;;;69.70;46.10;;;;;;;;;;5052829;28;20525;-83
2021/11/19 02:21:35;;;;;;;77.67;55.40;;;;;;;;;;5052667;28;20949;-82
2021/11/19 02:24:04;;;;;;;90.73;56.87;;;;;;;;;;5052684;28;20478;-82
2021/11/19 02:26:36;;;;;;;72.60;53.20;;;;;;;;;;5052750;28;20446;-81
2021/11/19 02:29:06;;;;;;;81.10;51.67;;;;;;;;;;5052758;28;20434;-83
2021/11/19 02:31:35;;;;;;;66.73;47.33;;;;;;;;;;5052395;28;20967;-83
2021/11/19 02:34:04;;;;;;;70.47;50.70;;;;;;;;;;5052393;28;20939;-81
2021/11/19 02:36:37;;;;;;;77.67;54.03;;;;;;;;;;5052385;28;20894;-82
2021/11/19 02:39:06;;;;;;;73.17;49.27;;;;;;;;;;5052742;28;20406;-82
2021/11/19 02:41:36;;;;;;;70.73;50.67;;;;;;;;;;5052339;28;20925;-82
2021/11/19 02:44:07;;;;;;;70.33;50.43;;;;;;;;;;5034335;28;20570;-82
2021/11/19 02:46:35;;;;;;;68.50;50.27;;;;;;;;;;5056322;28;20416;-82
2021/11/19 02:49:03;;;;;;;76.20;51.87;;;;;;;;;;5056597;28;20487;-82
2021/11/19 02:51:33;;;;;;;82.10;54.43;;;;;;;;;;5056530;28;20449;-82
2021/11/19 02:54:02;;;;;;;71.40;51.30;;;;;;;;;;5056551;28;20421;-82
2021/11/19 02:56:29;;;;;;;79.60;52.80;;;;;;;;;;5056196;28;20942;-82
2021/11/19 02:58:58;;;;;;;66.63;45.67;;;;;;;;;;5056094;28;20438;-83
2021/11/19 03:01:28;;;;;;;57.13;46.67;;;;;;;;;;5056427;28;20449;-82
2021/11/19 03:04:02;;;;;;;82.03;56.70;;;;;;;;;;5055958;28;20452;-82
2021/11/19 03:06:29;;;;;;;72.13;46.23;;;;;;;;;;5056168;28;20408;-82
2021/11/19 03:08:56;;;;;;;77.20;53.43;;;;;;;;;;5055751;28;20480;-82
2021/11/19 03:11:24;;;;;;;68.77;51.33;;;;;;;;;;5056003;28;20473;-83
2021/11/19 03:13:51;;;;;;;82.33;54.83;;;;;;;;;;5056156;28;20439;-82
2021/11/19 03:16:20;;;;;;;77.53;53.70;;;;;;;;;;5055821;28;20423;-82
2021/11/19 03:18:48;;;;;;;83.13;56.40;;;;;;;;;;5056111;28;20429;-82
2021/11/19 03:21:17;;;;;;;70.53;49.07;;;;;;;;;;5038040;28;20482;-82
2021/11/19 03:23:45;;;;;;;79.10;54.10;;;;;;;;;;5055556;28;20789;-82
2021/11/19 03:26:14;;;;;;;74.17;50.40;;;;;;;;;;5055992;28;20430;-82
2021/11/19 03:28:44;;;;;;;56.47;45.53;;;;;;;;;;5037732;28;20447;-82
2021/11/19 03:31:12;;;;;;;70.60;47.73;;;;;;;;;;5055664;28;20416;-82
2021/11/19 03:33:41;;;;;;;74.87;50.27;;;;;;;;;;5055452;28;20809;-81
2021/11/19 03:36:11;;;;;;;71.53;52.70;;;;;;;;;;5055828;28;20463;-82
2021/11/19 03:38:39;;;;;;;69.47;50.93;;;;;;;;;;5055727;28;20446;-83
2021/11/19 03:41:08;;;;;;;79.33;53.43;;;;;;;;;;5055631;28;20475;-81
2021/11/19 03:43:36;;;;;;;59.23;45.67;;;;;;;;;;5055212;28;20440;-81
2021/11/19 03:46:05;;;;;;;69.80;51.60;;;;;;;;;;5037481;28;20496;-82
2021/11/19 03:48:34;;;;;;;62.30;48.87;;;;;;;;;;5055444;28;20417;-82
2021/11/19 03:51:04;;;;;;;62.77;48.83;;;;;;;;;;5055154;28;20474;-82
2021/11/19 03:53:33;;;;;;;63.13;46.50;;;;;;;;;;5055089;28;20818;-82
2021/11/19 03:56:02;;;;;;;71.90;51.13;;;;;;;;;;5054794;28;20405;-82
2021/11/19 03:58:31;;;;;;;66.70;47.37;;;;;;;;;;5054933;28;20405;-82
2021/11/19 04:01:00;;;;;;;61.90;45.10;;;;;;;;;;5055386;28;20511;-82
2021/11/19 04:03:28;;;;;;;57.50;48.50;;;;;;;;;;5054886;28;20438;-82
2021/11/19 04:05:56;;;;;;;54.80;47.00;;;;;;;;;;5037507;28;20505;-81
2021/11/19 04:08:23;;;;;;;49.73;44.37;;;;;;;;;;5055084;28;20453;-82
2021/11/19 04:10:52;;;;;;;49.73;43.47;;;;;;;;;;5054645;28;20457;-82
2021/11/19 04:13:20;;;;;;;58.20;48.00;;;;;;;;;;5054733;28;20421;-81
2021/11/19 04:15:49;;;;;;;57.10;46.10;;;;;;;;;;5055059;28;20438;-82
2021/11/19 04:18:16;;;;;;;55.53;45.37;;;;;;;;;;5054997;28;20435;-82
2021/11/19 04:20:44;;;;;;;54.87;44.83;;;;;;;;;;5054841;28;20430;-81
2021/11/19 04:23:12;;;;;;;40.40;36.30;;;;;;;;;;5054666;28;20410;-81
2021/11/19 04:25:40;;;;;;;48.00;42.87;;;;;;;;;;5054365;28;20457;-81
2021/11/19 04:28:09;;;;;;;51.70;43.87;;;;;;;;;;5054938;28;20423;-82
2021/11/19 04:30:38;;;;;;;47.07;42.07;;;;;;;;;;5054374;28;20939;-82
2021/11/19 04:33:05;;;;;;;46.93;40.53;;;;;;;;;;5036615;28;20464;-82
2021/11/19 04:35:33;;;;;;;48.40;43.00;;;;;;;;;;5054357;28;20493;-82
2021/11/19 04:38:01;;;;;;;49.70;44.40;;;;;;;;;;5054541;28;20427;-83
2021/11/19 04:40:30;;;;;;;49.17;41.90;;;;;;;;;;5054403;28;20417;-82
2021/11/19 04:42:57;;;;;;;57.67;46.30;;;;;;;;;;5054519;28;20526;-82
2021/11/19 04:45:27;;;;;;;49.23;43.90;;;;;;;;;;5054124;28;20460;-82
2021/11/19 04:47:54;;;;;;;56.50;50.77;;;;;;;;;;5054315;28;20893;-82
2021/11/19 04:50:23;;;;;;;60.00;50.90;;;;;;;;;;5054169;28;20905;-81
2021/11/19 04:52:51;;;;;;;53.47;48.00;;;;;;;;;;5054132;28;20421;-83
2021/11/19 04:55:19;;;;;;;52.20;47.03;;;;;;;;;;5054233;28;20505;-82
2021/11/19 04:57:46;;;;;;;53.13;47.90;;;;;;;;;;5054093;28;20435;-82
2021/11/19 05:00:16;;;;;;;63.27;51.87;;;;;;;;;;5054234;28;20429;-82
2021/11/19 05:02:45;;;;;;;51.30;44.83;;;;;;;;;;5053818;28;20462;-82
2021/11/19 05:05:12;;;;;;;38.17;34.83;;;;;;;;;;5053794;28;20560;-82
2021/11/19 05:07:39;;;;;;;51.10;45.07;;;;;;;;;;5053925;28;20442;-82
2021/11/19 05:10:07;;;;;;;51.63;42.27;;;;;;;;;;5053548;28;20488;-83
2021/11/19 05:12:37;;;;;;;60.97;48.57;;;;;;;;;;5053680;28;20431;-82
2021/11/19 05:15:04;;;;;;;63.40;49.80;;;;;;;;;;5053734;28;20458;-82
2021/11/19 05:17:32;;;;;;;57.90;47.47;;;;;;;;;;5053439;28;20932;-82
2021/11/19 05:20:01;;;;;;;42.17;37.70;;;;;;;;;;5053838;28;20579;-82
2021/11/19 05:22:29;;;;;;;57.60;46.80;;;;;;;;;;5053858;28;20428;-82
2021/11/19 05:24:57;;;;;;;53.40;46.87;;;;;;;;;;5035506;28;20961;-81
2021/11/19 05:27:24;;;;;;;68.17;49.97;;;;;;;;;;5053569;28;20417;-82
2021/11/19 05:29:52;;;;;;;64.17;51.07;;;;;;;;;;5053816;28;20947;-82
2021/11/19 05:32:20;;;;;;;67.47;51.87;;;;;;;;;;5053467;28;20459;-82
2021/11/19 05:34:47;;;;;;;64.27;50.00;;;;;;;;;;5053517;28;20446;-82
2021/11/19 05:37:16;;;;;;;52.63;43.97;;;;;;;;;;5053233;28;20484;-83
2021/11/19 05:39:44;;;;;;;61.80;48.60;;;;;;;;;;5053196;28;20765;-82
2021/11/19 05:42:11;;;;;;;61.83;47.80;;;;;;;;;;5035233;28;20456;-82
2021/11/19 05:44:42;;;;;;;75.67;54.13;;;;;;;;;;5052712;28;20858;-82
2021/11/19 05:47:09;;;;;;;73.27;52.63;;;;;;;;;;5052832;28;20924;-82
2021/11/19 05:49:37;;;;;;;70.07;52.83;;;;;;;;;;5053386;28;20475;-83
2021/11/19 05:52:06;;;;;;;47.03;39.30;;;;;;;;;;5053286;28;20445;-83
2021/11/19 05:54:36;;;;;;;71.77;52.37;;;;;;;;;;5052864;28;20820;-82
2021/11/19 05:57:04;;;;;;;56.47;46.00;;;;;;;;;;5053115;28;20537;-83
2021/11/19 05:59:31;;;;;;;71.20;54.17;;;;;;;;;;5052796;28;20478;-82
2021/11/19 06:01:59;;;;;;;81.67;55.17;;;;;;;;;;5052794;28;20412;-82
2021/11/19 06:04:26;;;;;;;80.93;57.57;;;;;;;;;;5052875;28;20417;-82
2021/11/19 06:06:54;;;;;;;82.33;58.33;;;;;;;;;;5052757;28;20450;-82
2021/11/19 06:09:27;;;;;;;81.07;56.00;;;;;;;;;;5052528;28;20532;-82
2021/11/19 06:11:57;;;;;;;64.17;47.83;;;;;;;;;;5053036;28;20474;-83
2021/11/19 06:14:27;;;;;;;60.17;48.90;;;;;;;;;;5052855;28;20424;-83
2021/11/19 06:16:56;;;;;;;89.30;57.13;;;;;;;;;;5052741;28;20451;-83
2021/11/19 06:19:25;;;;;;;80.03;56.90;;;;;;;;;;5052437;28;20479;-83
2021/11/19 06:21:53;;;;;;;70.67;52.30;;;;;;;;;;5053037;28;20413;-83
2021/11/19 06:24:23;;;;;;;76.07;54.77;;;;;;;;;;5052339;28;20439;-83
2021/11/19 06:26:51;;;;;;;66.70;53.40;;;;;;;;;;5052720;28;20458;-82
2021/11/19 06:29:20;;;;;;;52.33;43.10;;;;;;;;;;5052849;28;20435;-84
2021/11/19 06:31:49;;;;;;;73.00;52.20;;;;;;;;;;5052769;28;20413;-83
2021/11/19 06:34:16;;;;;;;87.03;56.77;;;;;;;;;;5052391;28;20827;-82
2021/11/19 06:36:45;;;;;;;69.47;50.60;;;;;;;;;;5052264;28;20916;-82
2021/11/19 06:39:14;;;;;;;54.23;45.80;;;;;;;;;;5052350;28;20442;-82
2021/11/19 06:41:41;;;;;;;57.37;45.17;;;;;;;;;;5052531;28;20797;-82
2021/11/19 06:44:09;;;;;;;68.10;48.30;;;;;;;;;;5052361;28;20416;-82
2021/11/19 06:46:38;;;;;;;62.77;48.60;;;;;;;;;;5051851;28;20954;-82
2021/11/19 06:49:06;;;;;;;50.40;44.67;;;;;;;;;;5052346;28;20417;-82
2021/11/19 06:51:33;;;;;;;66.20;49.87;;;;;;;;;;5052014;28;20450;-82
2021/11/19 06:54:01;;;;;;;62.53;47.53;;;;;;;;;;5052082;28;20436;-82
2021/11/19 06:56:28;;;;;;;48.97;43.30;;;;;;;;;;5052185;28;20484;-83
2021/11/19 06:58:55;;;;;;;76.97;55.10;;;;;;;;;;5051986;28;20446;-83
2021/11/19 07:01:23;;;;;;;61.73;46.73;;;;;;;;;;5052453;28;20413;-83
2021/11/19 07:03:51;;;;;;;75.07;54.27;;;;;;;;;;5052129;28;20952;-82
2021/11/19 07:06:19;;;;;;;77.30;53.30;;;;;;;;;;5034220;28;20518;-82
2021/11/19 07:08:47;;;;;;;74.97;54.90;;;;;;;;;;5051952;28;20453;-82
2021/11/19 07:11:15;;;;;;;57.37;47.17;;;;;;;;;;5051996;28;20443;-83
2021/11/19 07:13:43;;;;;;;80.03;54.00;;;;;;;;;;5052331;28;20434;-82
2021/11/19 07:16:10;;;;;;;76.07;53.70;;;;;;;;;;5052197;28;20825;-82
2021/11/19 07:18:38;;;;;;;66.03;51.13;;;;;;;;;;5052300;28;20416;-82
2021/11/19 07:21:07;;;;;;;70.63;49.47;;;;;;;;;;5052197;28;20418;-81
2021/11/19 07:23:34;;;;;;;73.13;53.47;;;;;;;;;;5051842;28;20759;-81
2021/11/19 07:26:02;;;;;;;74.23;53.77;;;;;;;;;;5034038;28;20518;-82
2021/11/19 07:28:29;;;;;;;86.73;53.30;;;;;;;;;;5052183;28;21007;-83
2021/11/19 07:30:58;;;;;;;72.53;56.77;;;;;;;;;;5051916;28;20417;-82
2021/11/19 07:33:27;;;;;;;62.27;47.17;;;;;;;;;;5055531;28;20448;-82
2021/11/19 07:35:55;;;;;;;75.43;55.43;;;;;;;;;;5055651;28;20895;-82
2021/11/19 07:38:25;;;;;;;54.23;44.80;;;;;;;;;;5055364;28;20434;-81
2021/11/19 07:40:53;;;;;;;54.27;44.67;;;;;;;;;;5055528;28;20517;-82
2021/11/19 07:43:22;;;;;;;69.47;52.50;;;;;;;;;;5055659;28;20409;-82
2021/11/19 07:45:49;;;;;;;88.17;54.80;;;;;;;;;;5055460;28;20468;-82
2021/11/19 07:48:18;;;;;;;81.23;57.40;;;;;;;;;;5055108;28;20908;-78
2021/11/19 07:50:47;;;;;;;96.77;58.17;;;;;;;;;;5055534;28;20413;-78
2021/11/19 07:53:16;;;;;;;77.53;54.30;;;;;;;;;;5055186;28;20479;-78
2021/11/19 07:55:46;;;;;;;81.10;57.10;;;;;;;;;;5055445;28;20515;-82
2021/11/19 07:58:14;;;;;;;72.23;54.30;;;;;;;;;;5055231;28;20442;-84
2021/11/19 08:00:42;;;;;;;67.30;52.80;;;;;;;;;;5055168;28;20478;-84
2021/11/19 08:03:10;;;;;;;67.67;53.20;;;;;;;;;;5037369;28;20475;-84
2021/11/19 08:05:38;;;;;;;83.90;58.80;;;;;;;;;;5037840;28;20456;-89
2021/11/19 08:08:05;;;;;;;66.23;54.97;;;;;;;;;;5037471;28;20504;-83
2021/11/19 08:10:33;;;;;;;73.40;54.90;;;;;;;;;;5054858;28;20886;-83
2021/11/19 08:13:02;;;;;;;67.10;53.50;;;;;;;;;;5055064;28;20417;-83
2021/11/19 08:15:31;;;;;;;54.13;48.40;;;;;;;;;;5037138;28;21297;-84
2021/11/19 08:17:59;;;;;;;56.20;47.20;;;;;;;;;;5036997;28;20429;-83
2021/11/19 08:20:28;;;;;;;70.43;52.00;;;;;;;;;;5054873;28;20417;-83
2021/11/19 08:22:55;;;;;;;78.07;54.23;;;;;;;;;;5055210;28;20458;-84
2021/11/19 08:25:23;;;;;;;66.77;54.00;;;;;;;;;;5054676;28;20517;-84
2021/11/19 08:27:52;;;;;;;72.03;53.07;;;;;;;;;;5054775;28;20430;-83
2021/11/19 08:30:23;;;;;;;67.13;54.27;;;;;;;;;;5054637;28;20442;-83
2021/11/19 08:32:53;;;;;;;78.27;57.13;;;;;;;;;;5054729;28;20436;-84
2021/11/19 08:35:21;;;;;;;48.87;44.00;;;;;;;;;;5054687;28;20508;-94
2021/11/19 08:37:49;;;;;;;52.53;46.77;;;;;;;;;;5069330;28;20418;-89
2021/11/19 08:40:17;;;;;;;67.73;52.80;;;;;;;;;;5054922;28;20529;-82
2021/11/19 08:42:45;;;;;;;54.80;46.63;;;;;;;;;;5054674;28;20443;-91
2021/11/19 08:45:13;;;;;;;71.50;52.47;;;;;;;;;;5056083;28;20471;-95
2021/11/19 08:47:41;;;;;;;72.97;54.27;;;;;;;;;;5055725;28;20409;-92
2021/11/19 08:50:10;;;;;;;71.73;53.43;;;;;;;;;;5055551;28;20473;-92
2021/11/19 08:52:37;;;;;;;69.53;52.20;;;;;;;;;;5055348;28;20844;-90
2021/11/19 08:55:05;;;;;;;67.13;50.90;;;;;;;;;;5056383;28;20457;-89
2021/11/19 08:57:34;;;;;;;60.40;49.90;;;;;;;;;;5055422;28;20443;-90
2021/11/19 09:00:01;;;;;;;58.60;51.70;;;;;;;;;;5056717;28;20500;-89
2021/11/19 09:02:28;;;;;;;61.60;50.97;;;;;;;;;;5055216;28;20409;-90
2021/11/19 09:04:57;;;;;;;55.73;45.07;;;;;;;;;;5055291;28;20420;-89
2021/11/19 09:07:25;;;;;;;66.30;49.40;;;;;;;;;;5054913;28;20523;-89
2021/11/19 09:09:53;;;;;;;39.17;35.30;;;;;;;;;;5054854;28;20949;-88
2021/11/19 09:12:21;;;;;;;58.60;47.60;;;;;;;;;;5055024;28;20475;-88
2021/11/19 09:14:48;;;;;;;59.50;49.90;;;;;;;;;;5055195;28;20846;-89
2021/11/19 09:17:20;;;;;;;46.03;41.43;;;;;;;;;;5054234;28;20421;-84
2021/11/19 09:19:51;;;;;;;46.27;41.30;;;;;;;;;;5037999;28;20443;-88
2021/11/19 09:22:23;;;;;;;52.87;47.10;;;;;;;;;;5055878;28;20410;-86
2021/11/19 09:24:51;;;;;;;59.10;47.17;;;;;;;;;;5037921;28;20492;-77
2021/11/19 09:27:19;;;;;;;57.47;49.50;;;;;;;;;;5053557;28;20456;-80
2021/11/19 09:29:48;;;;;;;46.20;40.77;;;;;;;;;;5053099;28;20478;-79
2021/11/19 09:32:16;;;;;;;57.40;49.50;;;;;;;;;;5053508;28;20456;-79
2021/11/19 09:34:46;;;;;;;55.70;45.77;;;;;;;;;;5052964;28;20463;-79
2021/11/19 09:37:14;;;;;;;61.47;48.47;;;;;;;;;;5066332;28;20434;-78
2021/11/19 09:39:44;;;;;;;51.93;46.23;;;;;;;;;;5073330;28;20518;-79
2021/11/19 09:42:14;;;;;;;49.43;44.37;;;;;;;;;;5073279;28;20445;-79
2021/11/19 09:44:55;;;;;;;52.07;45.10;;;;;;;;;;5073189;28;20418;-80
2021/11/19 09:47:41;;;;;;;55.90;49.07;;;;;;;;;;5073090;28;20566;-79
2021/11/19 09:50:40;;;;;;;46.53;41.57;;;;;;;;;;5072932;28;20444;-79
2021/11/19 09:53:27;;;;;;;52.87;47.13;;;;;;;;;;5072954;28;20976;-79
2021/11/19 09:56:11;;;;;;;56.33;49.43;;;;;;;;;;5065998;28;20982;-79
2021/11/19 09:58:46;;;;;;;51.93;45.47;;;;;;;;;;5073160;28;20420;-80
2021/11/19 10:01:32;;;;;;;63.00;51.10;;;;;;;;;;5072737;28;20406;-79
2021/11/19 10:04:07;;;;;;;62.57;49.83;;;;;;;;;;5072693;28;20433;-80
2021/11/19 10:06:37;;;;;;;50.17;44.23;;;;;;;;;;5064635;28;20493;-77
2021/11/19 10:09:06;;;;;;;53.60;45.63;;;;;;;;;;5052325;28;20478;-77
2021/11/19 10:11:37;;;;;;;46.50;41.87;;;;;;;;;;5052541;28;20453;-77
2021/11/19 10:14:18;;;;;;;44.87;38.57;;;;;;;;;;5052470;28;20438;-78
2021/11/19 10:16:49;;;;;;;53.97;48.27;;;;;;;;;;5052630;28;20430;-77
2021/11/19 10:19:20;;;;;;;52.23;44.97;;;;;;;;;;5052793;28;20760;-78
2021/11/19 10:21:55;;;;;;;55.93;47.77;;;;;;;;;;5052768;28;20424;-77
2021/11/19 10:24:29;;;;;;;52.03;44.33;;;;;;;;;;5052712;28;20496;-77
2021/11/19 10:26:59;;;;;;;48.90;43.70;;;;;;;;;;5052328;28;20992;-78
2021/11/19 10:29:28;;;;;;;44.90;39.87;;;;;;;;;;5052319;28;20448;-77
2021/11/19 10:31:57;;;;;;;52.00;46.37;;;;;;;;;;5052261;28;20443;-77
2021/11/19 10:34:28;;;;;;;49.43;44.03;;;;;;;;;;5052401;28;20412;-77
2021/11/19 10:37:02;;;;;;;64.40;50.67;;;;;;;;;;5063201;28;20446;-78
2021/11/19 10:39:44;;;;;;;52.30;43.73;;;;;;;;;;5072391;28;20495;-79
2021/11/19 10:42:32;;;;;;;50.97;44.20;;;;;;;;;;5069604;28;20477;-79
2021/11/19 10:45:17;;;;;;;47.43;39.97;;;;;;;;;;5072322;28;20424;-79
2021/11/19 10:48:05;;;;;;;46.20;41.60;;;;;;;;;;5072324;28;20481;-80
2021/11/19 10:50:51;;;;;;;47.83;42.63;;;;;;;;;;5072333;28;20471;-79
2021/11/19 10:53:33;;;;;;;58.87;47.70;;;;;;;;;;5072207;28;20747;-79
2021/11/19 10:56:25;;;;;;;55.67;47.53;;;;;;;;;;5071980;28;20862;-84
2021/11/19 10:58:55;;;;;;;68.37;50.50;;;;;;;;;;5072455;28;20436;-78
2021/11/19 11:01:26;;;;;;;60.30;50.67;;;;;;;;;;5072290;28;20437;-83
2021/11/19 11:04:05;;;;;;;53.87;46.87;;;;;;;;;;5072009;28;20440;-79
2021/11/19 11:06:38;;;;;;;65.07;52.70;;;;;;;;;;5074215;28;20733;-79
2021/11/19 11:09:19;;;;;;;64.70;50.70;;;;;;;;;;5076011;28;20467;-79
2021/11/19 11:11:53;;;;;;;68.80;55.03;;;;;;;;;;5076060;28;20451;-79
2021/11/19 11:14:21;;;;;;;54.77;45.50;;;;;;;;;;5075878;28;20491;-78
2021/11/19 11:16:50;;;;;;;60.53;50.27;;;;;;;;;;5075699;28;20408;-78
2021/11/19 11:19:19;;;;;;;55.77;44.63;;;;;;;;;;5075968;28;20408;-78
2021/11/19 11:21:59;;;;;;;68.60;54.60;;;;;;;;;;5076061;28;20852;-79
2021/11/19 11:24:27;;;;;;;64.93;52.90;;;;;;;;;;5075814;28;20442;-78
2021/11/19 11:26:57;;;;;;;49.20;41.63;;;;;;;;;;5075825;28;20493;-78
2021/11/19 11:29:42;;;;;;;66.60;52.90;;;;;;;;;;5075372;28;20420;-79
2021/11/19 11:32:18;;;;;;;64.13;50.10;;;;;;;;;;5075855;28;20446;-79
2021/11/19 11:35:00;;;;;;;60.47;50.87;;;;;;;;;;5075622;28;20826;-79
2021/11/19 11:37:31;;;;;;;62.20;51.03;;;;;;;;;;5060033;28;20436;-78
2021/11/19 11:40:03;;;;;;;64.53;53.20;;;;;;;;;;5037349;28;20882;-78
2021/11/19 11:42:32;;;;;;;63.13;50.07;;;;;;;;;;5055387;28;20822;-79
2021/11/19 11:45:00;;;;;;;63.47;50.20;;;;;;;;;;5055154;28;20443;-78
2021/11/19 11:47:33;;;;;;;62.60;50.77;;;;;;;;;;5054907;28;20841;-79
2021/11/19 11:50:02;;;;;;;62.10;51.93;;;;;;;;;;5055392;28;20413;-78
2021/11/19 11:52:38;;;;;;;57.17;45.70;;;;;;;;;;5055065;28;20442;-78
2021/11/19 11:55:15;;;;;;;54.33;48.20;;;;;;;;;;5054990;28;20898;-78
2021/11/19 11:57:44;;;;;;;49.17;43.17;;;;;;;;;;5055362;28;20438;-78
2021/11/19 12:00:15;;;;;;;43.33;38.63;;;;;;;;;;5055226;28;20431;-79
2021/11/19 12:02:52;;;;;;;63.07;51.40;;;;;;;;;;5055281;28;20449;-78
2021/11/19 12:05:28;;;;;;;68.10;50.80;;;;;;;;;;5055137;28;20409;-78
2021/11/19 12:07:59;;;;;;;62.23;50.17;;;;;;;;;;5073822;28;20997;-78
2021/11/19 12:10:33;;;;;;;50.13;43.70;;;;;;;;;;5074607;28;20452;-78
2021/11/19 12:13:04;;;;;;;61.07;46.67;;;;;;;;;;5075034;28;20443;-78
2021/11/19 12:15:36;;;;;;;43.80;39.27;;;;;;;;;;5074724;28;20867;-78
2021/11/19 12:18:08;;;;;;;63.50;51.53;;;;;;;;;;5074104;28;20442;-78
2021/11/19 12:20:46;;;;;;;57.17;47.90;;;;;;;;;;5074894;28;20412;-78
2021/11/19 12:23:20;;;;;;;54.83;48.83;;;;;;;;;;5074450;28;20445;-78
2021/11/19 12:25:59;;;;;;;44.47;39.90;;;;;;;;;;5074463;28;20440;-78
2021/11/19 12:28:31;;;;;;;57.67;50.63;;;;;;;;;;5074704;28;20543;-78
2021/11/19 12:31:00;;;;;;;58.67;50.80;;;;;;;;;;5074769;28;20405;-78
2021/11/19 12:33:30;;;;;;;56.93;50.03;;;;;;;;;;5074286;28;20799;-78
2021/11/19 12:36:00;;;;;;;56.30;49.03;;;;;;;;;;5074594;28;20967;-77
2021/11/19 12:38:31;;;;;;;61.97;50.53;;;;;;;;;;5074525;28;20419;-77
2021/11/19 12:40:59;;;;;;;57.57;51.27;;;;;;;;;;5074022;28;20449;-78
2021/11/19 12:43:36;;;;;;;60.40;53.27;;;;;;;;;;5074194;28;20980;-78
2021/11/19 12:46:10;;;;;;;62.73;52.60;;;;;;;;;;5074032;28;20441;-78
2021/11/19 12:48:57;;;;;;;56.27;48.87;;;;;;;;;;5073174;28;20460;-77
2021/11/19 12:51:28;;;;;;;54.03;46.10;;;;;;;;;;5074047;28;20436;-79
2021/11/19 12:54:10;;;;;;;56.23;49.00;;;;;;;;;;5074132;28;20457;-77
2021/11/19 12:57:04;;;;;;;56.30;45.27;;;;;;;;;;5071843;28;20457;-77
2021/11/19 12:59:45;;;;;;;62.40;50.00;;;;;;;;;;5074257;28;20474;-76
2021/11/19 13:02:17;;;;;;;59.13;47.00;;;;;;;;;;5074082;28;20409;-78
2021/11/19 13:04:54;;;;;;;51.83;45.70;;;;;;;;;;5073619;28;20969;-77
2021/11/19 13:07:34;;;;;;;56.87;48.00;;;;;;;;;;5059313;28;20468;-78
2021/11/19 13:10:04;;;;;;;52.33;46.20;;;;;;;;;;5053325;28;20916;-78
2021/11/19 13:12:46;;;;;;;42.60;38.07;;;;;;;;;;5053765;28;20447;-78
2021/11/19 13:15:17;;;;;;;53.13;47.37;;;;;;;;;;5053397;28;20474;-78
2021/11/19 13:17:56;;;;;;;52.20;45.63;;;;;;;;;;5053167;28;20443;-78
2021/11/19 13:20:35;;;;;;;51.60;46.00;;;;;;;;;;5053332;28;20890;-78
2021/11/19 13:23:17;;;;;;;53.50;46.97;;;;;;;;;;5053363;28;20409;-79
2021/11/19 13:25:47;;;;;;;46.13;40.50;;;;;;;;;;5051952;28;20469;-79
2021/11/19 13:28:35;;;;;;;50.57;44.50;;;;;;;;;;5053096;28;20843;-78
2021/11/19 13:31:17;;;;;;;49.27;41.87;;;;;;;;;;5048535;28;20469;-78
2021/11/19 13:34:10;;;;;;;56.80;45.77;;;;;;;;;;5063447;28;20432;-78
2021/11/19 13:36:38;;;;;;;47.70;41.03;;;;;;;;;;5061399;28;20435;-77
2021/11/19 13:39:27;;;;;;;47.57;42.57;;;;;;;;;;5073144;28;20802;-78
2021/11/19 13:42:10;;;;;;;47.77;42.87;;;;;;;;;;5068574;28;20998;-77
2021/11/19 13:45:06;;;;;;;42.93;38.63;;;;;;;;;;5071210;28;20457;-78
2021/11/19 13:47:55;;;;;;;46.23;41.20;;;;;;;;;;4991297;28;20507;-78
2021/11/19 13:50:40;;;;;;;44.07;40.03;;;;;;;;;;4991558;28;20423;-78
2021/11/19 13:53:12;;;;;;;47.83;39.10;;;;;;;;;;4991294;28;20442;-78
2021/11/19 13:55:41;;;;;;;43.53;39.30;;;;;;;;;;4991353;28;20505;-78
2021/11/19 13:58:22;;;;;;;42.13;37.63;;;;;;;;;;4991304;28;20419;-78
2021/11/19 14:00:53;;;;;;;43.70;39.20;;;;;;;;;;4991272;28;20433;-78
2021/11/19 14:03:23;;;;;;;41.57;36.90;;;;;;;;;;4991261;28;20783;-78
2021/11/19 14:05:52;;;;;;;42.43;37.87;;;;;;;;;;4991256;28;20460;-76
2021/11/19 14:08:21;;;;;;;40.67;36.77;;;;;;;;;;4991053;28;20501;-78
2021/11/19 14:10:50;;;;;;;45.50;37.97;;;;;;;;;;4990953;28;20489;-78
2021/11/19 14:13:18;;;;;;;40.40;36.40;;;;;;;;;;4991082;28;20446;-78
2021/11/19 14:15:46;;;;;;;37.97;34.37;;;;;;;;;;4991120;28;20457;-78
2021/11/19 14:18:23;;;;;;;36.27;32.70;;;;;;;;;;4991317;28;20476;-77
2021/11/19 14:23:46;;;;;;;42.00;37.80;;;;;;;;;;5019398;28;20424;-77
2021/11/19 14:26:15;;;;;;;43.70;39.17;;;;;;;;;;5032507;28;20985;-77
2021/11/19 14:28:44;;;;;;;42.37;37.90;;;;;;;;;;5032529;28;20482;-77
2021/11/19 14:31:13;;;;;;;41.73;37.43;;;;;;;;;;5032511;28;20440;-77
2021/11/19 14:33:53;;;;;;;41.30;37.17;;;;;;;;;;5032444;28;20888;-77
2021/11/19 14:36:23;;;;;;;38.50;34.50;;;;;;;;;;5032519;28;20450;-77
2021/11/19 14:38:51;;;;;;;43.70;39.60;;;;;;;;;;5032413;28;20925;-77
2021/11/19 14:41:27;;;;;;;46.10;41.30;;;;;;;;;;5034381;28;20881;-77